Overview Statistics Trail Chart Weather Telemetry Raw packets
 

This is the latest recevied weather packets stored in our database for station/object EA5JMY-10. If no packets are shown the sender has not sent any weather packets the latest 10 day(s).

<< 24 25 26 27 28 29 30 >>
Time Temp. Humidity Pressure Rain* Wind** Luminosity Snow
1788051272 23.89° C 53% 1019 hPa - - - -
1788050372 25° C 51% 1018.8 hPa - - - -
1788049472 24.44° C 52% 1019.1 hPa - - - -
1788048572 25° C 50% 1019 hPa - - - -
1788047672 25° C 50% 1019 hPa - - - -
1788046772 25° C 51% 1019.1 hPa - - - -
1788045871 25° C 49% 1019 hPa - - - -
1788044971 25° C 49% 1019.1 hPa - - - -
1788044071 25.56° C 48% 1019.1 hPa - - - -
1788043171 25.56° C 48% 1019.1 hPa - - - -
1788042271 26.11° C 49% 1019.1 hPa - - - -
1788041370 26.67° C 47% 1018.9 hPa - - - -
1788040469 26.67° C 49% 1018.9 hPa - - - -
1788039569 26.67° C 50% 1018.8 hPa - - - -
1788038669 26.67° C 52% 1018.8 hPa - - - -
1788037769 25.56° C 56% 1018.8 hPa - - - -
1788036869 25.56° C 56% 1018.6 hPa - - - -
1788035969 25.56° C 56% 1018.6 hPa - - - -
1788035069 25.56° C 55% 1018.4 hPa - - - -
1788034168 26.11° C 54% 1018.2 hPa - - - -
1788033267 27.22° C 52% 1018 hPa - - - -
1788032367 27.78° C 51% 1018 hPa - - - -
1788031467 27.78° C 51% 1017.7 hPa - - - -
1788030567 28.33° C 50% 1017.7 hPa - - - -
1788029667 28.33° C 49% 1017.6 hPa - - - -

* Rain since midnight (hover to see other rain measurements)
** Current wind speed in m/s (hover to see current wind gust speed)